Terminal Aerodrome Forecast
Issued by NWS

Current Version | Previous Version | Graphics & Text | Print | Product List | Glossary On
Versions: 1 2 3 4 5 6 7 8 9 10 11 12 13 14 15 16 17 18 19 20 21 22 23
222
FTUS41 KRLX 041135
TAFCKB
TAF
KCKB 041135Z 0412/0512 28006KT P6SM OVC025
     FM050400 29005KT P6SM BKN025
     FM050800 VRB03KT P6SM SCT020=

USA.gov is the U.S. government's official web portal to all federal, state and local government web resources and services.